createdAt,value
2023-02-04T00:00:35.571Z,86.99
2023-02-04T00:01:35.802Z,87.20
2023-02-04T00:02:35.562Z,87.40
2023-02-04T00:03:35.636Z,87.61
2023-02-04T00:04:35.495Z,87.71
2023-02-04T00:05:35.554Z,87.82
2023-02-04T00:06:35.497Z,88.06
2023-02-04T00:07:35.491Z,88.17
2023-02-04T00:08:35.468Z,88.17
2023-02-04T00:09:35.489Z,88.17
2023-02-04T00:10:35.512Z,88.27
2023-02-04T00:11:35.506Z,88.27
2023-02-04T00:12:35.383Z,88.06
2023-02-04T00:13:35.464Z,87.85
2023-02-04T00:14:35.388Z,87.75
2023-02-04T00:15:35.393Z,87.65
2023-02-04T00:16:35.365Z,87.65
2023-02-04T00:17:35.344Z,87.75
2023-02-04T00:18:35.335Z,87.85
2023-02-04T00:19:35.326Z,87.85
2023-02-04T00:20:35.320Z,87.96
2023-02-04T00:21:35.339Z,87.96
2023-02-04T00:22:35.288Z,87.96
2023-02-04T00:23:35.288Z,88.06
2023-02-04T00:24:35.254Z,88.06
2023-02-04T00:25:35.255Z,87.96
2023-02-04T00:26:35.243Z,87.85
2023-02-04T00:27:35.263Z,87.85
2023-02-04T00:28:35.207Z,87.96
2023-02-04T00:29:35.191Z,88.17
2023-02-04T00:30:35.166Z,88.17
2023-02-04T00:31:35.270Z,88.17
2023-02-04T00:32:35.155Z,88.27
2023-02-04T00:33:35.145Z,88.27
2023-02-04T00:34:35.132Z,88.37
2023-02-04T00:35:35.110Z,88.27
2023-02-04T00:36:35.133Z,88.37
2023-02-04T00:37:35.103Z,88.37
2023-02-04T00:38:35.071Z,88.41
2023-02-04T00:39:35.085Z,88.27
2023-02-04T00:40:35.058Z,88.41
2023-02-04T00:41:35.068Z,88.47
2023-02-04T00:42:35.040Z,88.51
2023-02-04T00:43:35.079Z,88.62
2023-02-04T00:44:34.980Z,88.72
2023-02-04T00:45:35.067Z,88.72
2023-02-04T00:46:34.990Z,88.72
2023-02-04T00:47:34.953Z,88.72
2023-02-04T00:48:34.962Z,88.51
2023-02-04T00:49:34.998Z,88.72
2023-02-04T00:50:34.902Z,88.82
2023-02-04T00:51:34.912Z,88.82
2023-02-04T00:52:34.904Z,88.62
2023-02-04T00:53:34.887Z,88.51
2023-02-04T00:54:34.849Z,88.51
2023-02-04T00:55:34.920Z,88.62
2023-02-04T00:56:34.842Z,88.62
2023-02-04T00:57:34.823Z,88.51
2023-02-04T00:58:34.841Z,88.10
2023-02-04T00:59:34.786Z,87.90
2023-02-04T01:00:34.844Z,88.00
2023-02-04T01:01:34.881Z,87.90
2023-02-04T01:02:34.819Z,88.00
2023-02-04T01:03:34.741Z,88.20
2023-02-04T01:04:34.736Z,88.20
2023-02-04T01:05:34.729Z,88.31
2023-02-04T01:06:34.742Z,88.41
2023-02-04T01:07:34.807Z,88.62
2023-02-04T01:08:34.722Z,88.51
2023-02-04T01:09:34.684Z,88.41
2023-02-04T01:10:34.703Z,88.20
2023-02-04T01:11:34.668Z,88.10
2023-02-04T01:12:34.639Z,88.10
2023-02-04T01:13:34.615Z,88.10
2023-02-04T01:14:34.699Z,88.00
2023-02-04T01:15:34.587Z,88.00
2023-02-04T01:16:34.627Z,88.00
2023-02-04T01:17:34.844Z,88.00
2023-02-04T01:18:34.609Z,87.90
2023-02-04T01:19:34.582Z,88.00
2023-02-04T01:20:34.592Z,88.00
2023-02-04T01:21:34.583Z,88.00
2023-02-04T01:22:34.559Z,88.00
2023-02-04T01:23:34.534Z,88.00
2023-02-04T01:24:34.496Z,88.31
2023-02-04T01:25:34.467Z,88.20
2023-02-04T01:26:34.455Z,88.31
2023-02-04T01:27:34.484Z,88.51
2023-02-04T01:28:34.438Z,88.51
2023-02-04T01:29:34.416Z,88.62
2023-02-04T01:30:34.783Z,88.82
2023-02-04T01:31:34.654Z,88.62
2023-02-04T01:32:34.420Z,88.62
2023-02-04T01:33:34.682Z,88.51
2023-02-04T01:34:34.400Z,88.51
2023-02-04T01:35:34.360Z,88.62
2023-02-04T01:36:34.459Z,88.82
2023-02-04T01:37:34.342Z,88.82
2023-02-04T01:38:34.336Z,88.82
2023-02-04T01:39:34.381Z,88.82
2023-02-04T01:40:34.329Z,88.62
2023-02-04T01:41:34.392Z,88.62
2023-02-04T01:42:34.433Z,88.72
2023-02-04T01:43:34.284Z,88.72
2023-02-04T01:44:34.369Z,88.82
2023-02-04T01:45:34.277Z,88.92
2023-02-04T01:46:35.109Z,88.92
2023-02-04T01:47:34.321Z,88.92
2023-02-04T01:48:34.217Z,88.92
2023-02-04T01:49:34.159Z,88.82
2023-02-04T01:50:34.195Z,88.82
2023-02-04T01:51:34.252Z,88.72
2023-02-04T01:52:34.161Z,88.62
2023-02-04T01:53:34.102Z,88.82
2023-02-04T01:54:34.099Z,88.82
2023-02-04T01:55:34.109Z,88.72
2023-02-04T01:56:34.069Z,88.82
2023-02-04T01:57:34.092Z,88.82
2023-02-04T01:58:34.051Z,88.96
2023-02-04T01:59:34.071Z,88.86
2023-02-04T02:00:34.329Z,89.07
2023-02-04T02:01:34.081Z,89.07
2023-02-04T02:02:34.128Z,89.17
2023-02-04T02:03:34.293Z,89.28
2023-02-04T02:04:33.977Z,89.17
2023-02-04T02:05:33.997Z,89.17
2023-02-04T02:06:33.961Z,88.96
2023-02-04T02:07:33.929Z,89.17
2023-02-04T02:08:33.967Z,89.28
2023-02-04T02:09:33.938Z,89.28
2023-02-04T02:10:33.973Z,89.48
2023-02-04T02:11:33.970Z,89.69
2023-02-04T02:12:33.898Z,89.48
2023-02-04T02:13:33.857Z,89.48
2023-02-04T02:14:33.848Z,89.58
2023-02-04T02:15:33.879Z,89.38
2023-02-04T02:16:33.877Z,89.28
2023-02-04T02:17:33.798Z,89.38
2023-02-04T02:18:33.822Z,89.17
2023-02-04T02:19:33.800Z,89.17
2023-02-04T02:20:33.901Z,88.96
2023-02-04T02:21:33.800Z,89.07
2023-02-04T02:22:33.773Z,88.96
2023-02-04T02:23:33.726Z,89.07
2023-02-04T02:24:33.720Z,88.96
2023-02-04T02:25:33.712Z,88.86
2023-02-04T02:26:33.722Z,88.96
2023-02-04T02:27:33.675Z,89.07
2023-02-04T02:28:34.421Z,88.96
2023-02-04T02:29:33.691Z,88.96
2023-02-04T02:30:34.051Z,88.86
2023-02-04T02:31:33.744Z,88.96
2023-02-04T02:32:33.662Z,88.96
2023-02-04T02:33:33.597Z,88.96
2023-02-04T02:34:33.622Z,88.96
2023-02-04T02:35:33.570Z,88.96
2023-02-04T02:36:33.607Z,89.07
2023-02-04T02:37:33.573Z,89.17
2023-02-04T02:38:33.575Z,89.38
2023-02-04T02:39:33.544Z,89.48
2023-02-04T02:40:33.652Z,89.48
2023-02-04T02:41:33.531Z,89.48
2023-02-04T02:42:33.522Z,89.38
2023-02-04T02:43:33.493Z,89.28
2023-02-04T02:44:33.469Z,89.48
2023-02-04T02:45:33.502Z,89.48
2023-02-04T02:46:33.452Z,89.58
2023-02-04T02:47:33.421Z,89.69
2023-02-04T02:48:33.410Z,89.58
2023-02-04T02:49:33.412Z,89.69
2023-02-04T02:50:33.692Z,89.89
2023-02-04T02:51:33.355Z,90.00
2023-02-04T02:52:33.414Z,90.00
2023-02-04T02:53:33.354Z,89.89
2023-02-04T02:54:33.382Z,90.00
2023-02-04T02:55:33.312Z,90.20
2023-02-04T02:56:33.333Z,90.20
2023-02-04T02:57:33.314Z,90.09
2023-02-04T02:58:33.365Z,90.09
2023-02-04T02:59:33.290Z,90.09
2023-02-04T03:00:33.638Z,90.20
2023-02-04T03:01:33.293Z,90.41
2023-02-04T03:02:33.254Z,90.30
2023-02-04T03:03:33.245Z,90.41
2023-02-04T03:04:33.228Z,90.41
2023-02-04T03:05:33.183Z,90.41
2023-02-04T03:06:33.182Z,90.51
2023-02-04T03:07:33.179Z,90.51
2023-02-04T03:08:33.140Z,90.51
2023-02-04T03:09:33.142Z,90.41
2023-02-04T03:10:33.318Z,90.34
2023-02-04T03:11:33.146Z,90.41
2023-02-04T03:12:33.100Z,90.41
2023-02-04T03:13:33.114Z,90.30
2023-02-04T03:14:33.200Z,90.00
2023-02-04T03:15:33.115Z,90.09
2023-02-04T03:16:33.109Z,90.20
2023-02-04T03:17:33.028Z,90.41
2023-02-04T03:18:33.059Z,90.55
2023-02-04T03:19:32.989Z,90.55
2023-02-04T03:20:33.352Z,90.66
2023-02-04T03:21:33.016Z,90.66
2023-02-04T03:22:33.004Z,90.75
2023-02-04T03:23:32.980Z,91.06
2023-02-04T03:24:32.989Z,91.17
2023-02-04T03:25:32.971Z,91.17
2023-02-04T03:26:32.934Z,91.17
2023-02-04T03:27:32.952Z,91.27
2023-02-04T03:28:32.910Z,91.27
2023-02-04T03:29:32.927Z,91.27
2023-02-04T03:30:33.287Z,91.38
2023-02-04T03:31:32.977Z,91.38
2023-02-04T03:32:32.896Z,91.38
2023-02-04T03:33:32.871Z,91.27
2023-02-04T03:34:32.840Z,91.27
2023-02-04T03:35:32.845Z,91.38
2023-02-04T03:36:32.802Z,91.47
2023-02-04T03:37:32.798Z,91.47
2023-02-04T03:38:32.820Z,91.47
2023-02-04T03:39:32.793Z,91.47
2023-02-04T03:40:33.174Z,91.58
2023-02-04T03:41:32.723Z,91.58
2023-02-04T03:42:32.754Z,91.58
2023-02-04T03:43:34.058Z,91.58
2023-02-04T03:44:32.748Z,91.58
2023-02-04T03:45:44.701Z,91.58
2023-02-04T03:46:33.712Z,91.68
2023-02-04T03:47:32.701Z,91.78
2023-02-04T03:48:32.699Z,91.78
2023-02-04T03:49:32.619Z,91.99
2023-02-04T03:50:33.045Z,92.10
2023-02-04T03:51:32.601Z,92.20
2023-02-04T03:52:32.641Z,92.10
2023-02-04T03:53:32.601Z,92.10
2023-02-04T03:54:32.633Z,91.99
2023-02-04T03:55:32.565Z,91.99
2023-02-04T03:56:32.551Z,91.99
2023-02-04T03:57:32.536Z,92.10
2023-02-04T03:58:32.558Z,92.20
2023-02-04T03:59:32.527Z,92.20
2023-02-04T04:00:32.908Z,92.20
2023-02-04T04:01:32.488Z,92.20
2023-02-04T04:02:32.497Z,92.30
2023-02-04T04:03:32.447Z,92.40
2023-02-04T04:04:32.477Z,92.50
2023-02-04T04:05:32.448Z,92.50
2023-02-04T04:06:32.525Z,92.50
2023-02-04T04:07:32.417Z,92.50
2023-02-04T04:08:32.389Z,92.61
2023-02-04T04:09:32.362Z,92.61
2023-02-04T04:10:32.747Z,92.61
2023-02-04T04:11:32.409Z,92.61
2023-02-04T04:12:32.364Z,92.82
2023-02-04T04:13:32.337Z,92.82
2023-02-04T04:14:32.336Z,92.82
2023-02-04T04:15:32.333Z,92.82
2023-02-04T04:16:32.323Z,92.71
2023-02-04T04:17:32.263Z,92.61
2023-02-04T04:18:32.292Z,92.71
2023-02-04T04:19:32.274Z,92.82
2023-02-04T04:20:32.589Z,92.82
2023-02-04T04:21:32.259Z,92.71
2023-02-04T04:22:32.231Z,92.82
2023-02-04T04:23:32.227Z,92.92
2023-02-04T04:24:32.233Z,92.92
2023-02-04T04:25:32.180Z,92.92
2023-02-04T04:26:32.181Z,93.06
2023-02-04T04:27:32.124Z,93.16
2023-02-04T04:28:32.191Z,93.27
2023-02-04T04:29:32.140Z,93.27
2023-02-04T04:30:32.501Z,93.37
2023-02-04T04:31:32.250Z,93.37
2023-02-04T04:32:32.107Z,93.48
2023-02-04T04:33:32.088Z,93.58
2023-02-04T04:34:32.075Z,93.68
2023-02-04T04:35:32.057Z,93.79
2023-02-04T04:36:32.071Z,93.88
2023-02-04T04:37:32.025Z,93.88
2023-02-04T04:38:32.045Z,93.88
2023-02-04T04:39:31.975Z,93.99
2023-02-04T04:40:32.383Z,94.09
2023-02-04T04:41:31.973Z,94.09
2023-02-04T04:42:31.997Z,94.09
2023-02-04T04:43:31.925Z,94.09
2023-02-04T04:44:31.940Z,94.09
2023-02-04T04:45:31.942Z,94.20
2023-02-04T04:46:31.910Z,94.09
2023-02-04T04:47:31.900Z,94.09
2023-02-04T04:48:31.927Z,94.09
2023-02-04T04:49:31.920Z,94.09
2023-02-04T04:50:32.368Z,94.09
2023-02-04T04:51:31.866Z,94.09
2023-02-04T04:52:31.874Z,94.20
2023-02-04T04:53:31.796Z,94.20
2023-02-04T04:54:31.791Z,94.30
2023-02-04T04:55:31.760Z,94.30
2023-02-04T04:56:31.795Z,94.30
2023-02-04T04:57:31.759Z,94.30
2023-02-04T04:58:31.750Z,94.30
2023-02-04T04:59:31.718Z,94.40
2023-02-04T05:00:32.206Z,94.40
2023-02-04T05:01:31.716Z,94.40
2023-02-04T05:02:31.704Z,94.40
2023-02-04T05:03:31.678Z,94.40
2023-02-04T05:04:31.765Z,94.30
2023-02-04T05:05:31.653Z,94.30
2023-02-04T05:06:31.654Z,94.40
2023-02-04T05:07:31.685Z,94.30
2023-02-04T05:08:31.669Z,94.20
2023-02-04T05:09:31.621Z,94.20
2023-02-04T05:10:31.902Z,94.30
2023-02-04T05:11:31.566Z,94.30
2023-02-04T05:12:31.598Z,94.40
2023-02-04T05:13:31.614Z,94.30
2023-02-04T05:14:31.536Z,94.20
2023-02-04T05:15:39.399Z,94.20
2023-02-04T05:16:34.265Z,94.09
2023-02-04T05:17:31.539Z,93.99
2023-02-04T05:18:31.484Z,93.88
2023-02-04T05:19:31.497Z,93.99
2023-02-04T05:20:31.768Z,93.99
2023-02-04T05:21:31.485Z,93.99
2023-02-04T05:22:31.450Z,93.99
2023-02-04T05:23:31.422Z,93.99
2023-02-04T05:24:31.472Z,93.99
2023-02-04T05:25:31.402Z,93.99
2023-02-04T05:26:31.522Z,94.09
2023-02-04T05:27:31.418Z,94.09
2023-02-04T05:28:31.424Z,94.09
2023-02-04T05:29:31.363Z,94.09
2023-02-04T05:30:31.820Z,94.13
2023-02-04T05:31:31.400Z,94.13
2023-02-04T05:32:31.330Z,94.20
2023-02-04T05:33:31.341Z,94.20
2023-02-04T05:34:31.273Z,94.20
2023-02-04T05:35:31.297Z,94.24
2023-02-04T05:36:31.278Z,94.24
2023-02-04T05:37:31.308Z,94.34
2023-02-04T05:38:31.259Z,94.45
2023-02-04T05:39:31.257Z,94.45
2023-02-04T05:40:31.550Z,94.45
2023-02-04T05:41:31.244Z,94.55
2023-02-04T05:42:31.168Z,94.65
2023-02-04T05:43:31.179Z,94.65
2023-02-04T05:44:31.173Z,94.65
2023-02-04T05:45:31.212Z,94.65
2023-02-04T05:46:31.148Z,94.65
2023-02-04T05:47:31.148Z,94.65
2023-02-04T05:48:31.096Z,94.65
2023-02-04T05:49:31.137Z,94.76
2023-02-04T05:50:31.506Z,94.85
2023-02-04T05:51:31.082Z,94.85
2023-02-04T05:52:31.122Z,94.85
2023-02-04T05:53:31.047Z,94.85
2023-02-04T05:54:31.027Z,94.85
2023-02-04T05:55:31.065Z,94.96
2023-02-04T05:56:31.015Z,94.96
2023-02-04T05:57:31.019Z,94.96
2023-02-04T05:58:30.990Z,95.06
2023-02-04T05:59:31.004Z,95.06
2023-02-04T06:00:31.237Z,95.06
2023-02-04T06:01:30.942Z,95.17
2023-02-04T06:02:30.950Z,95.27
2023-02-04T06:03:31.106Z,95.27
2023-02-04T06:04:31.039Z,95.27
2023-02-04T06:05:31.690Z,95.27
2023-02-04T06:06:30.942Z,95.27
2023-02-04T06:07:30.862Z,95.27
2023-02-04T06:08:30.857Z,95.27
2023-02-04T06:09:30.870Z,95.37
2023-02-04T06:10:31.276Z,95.37
2023-02-04T06:11:30.837Z,95.37
2023-02-04T06:12:30.790Z,95.48
2023-02-04T06:13:31.085Z,95.48
2023-02-04T06:14:30.761Z,95.48
2023-02-04T06:15:30.791Z,95.48
2023-02-04T06:16:30.874Z,95.48
2023-02-04T06:17:30.766Z,95.58
2023-02-04T06:18:30.748Z,95.58
2023-02-04T06:19:30.729Z,95.58
2023-02-04T06:20:31.120Z,95.58
2023-02-04T06:21:30.699Z,95.68
2023-02-04T06:22:30.694Z,95.68
2023-02-04T06:23:30.694Z,95.68
2023-02-04T06:24:30.675Z,95.78
2023-02-04T06:25:30.642Z,95.58
2023-02-04T06:26:30.674Z,95.58
2023-02-04T06:27:30.614Z,95.58
2023-02-04T06:28:30.647Z,95.58
2023-02-04T06:29:30.635Z,95.58
2023-02-04T06:30:31.204Z,95.58
2023-02-04T06:31:30.761Z,95.58
2023-02-04T06:32:30.536Z,95.58
2023-02-04T06:33:30.574Z,95.68
2023-02-04T06:34:30.538Z,95.73
2023-02-04T06:35:30.561Z,95.83
2023-02-04T06:36:30.517Z,95.83
2023-02-04T06:37:30.515Z,95.83
2023-02-04T06:38:30.454Z,95.73
2023-02-04T06:39:30.470Z,95.73
2023-02-04T06:40:30.783Z,95.83
2023-02-04T06:41:30.457Z,95.83
2023-02-04T06:42:30.442Z,95.83
2023-02-04T06:43:30.431Z,95.78
2023-02-04T06:44:30.411Z,95.83
2023-02-04T06:45:30.375Z,95.73
2023-02-04T06:46:30.495Z,95.73
2023-02-04T06:47:30.461Z,95.83
2023-02-04T06:48:31.227Z,95.83
2023-02-04T06:49:30.330Z,95.93
2023-02-04T06:50:30.774Z,95.93
2023-02-04T06:51:30.343Z,95.93
2023-02-04T06:52:30.337Z,95.93
2023-02-04T06:53:30.321Z,95.93
2023-02-04T06:54:30.279Z,95.93
2023-02-04T06:55:30.280Z,95.93
2023-02-04T06:56:30.242Z,95.93
2023-02-04T06:57:30.249Z,95.93
2023-02-04T06:58:30.204Z,95.93
2023-02-04T06:59:30.245Z,95.93
2023-02-04T07:00:30.686Z,95.93
2023-02-04T07:01:30.272Z,95.93
2023-02-04T07:02:30.202Z,96.03
2023-02-04T07:03:30.258Z,96.03
2023-02-04T07:04:30.153Z,96.03
2023-02-04T07:05:30.198Z,96.03
2023-02-04T07:06:30.102Z,96.03
2023-02-04T07:07:30.127Z,95.93
2023-02-04T07:08:30.105Z,95.93
2023-02-04T07:09:30.075Z,95.83
2023-02-04T07:10:30.369Z,95.83
2023-02-04T07:11:30.086Z,95.83
2023-02-04T07:12:30.057Z,95.83
2023-02-04T07:13:30.031Z,95.83
2023-02-04T07:14:30.056Z,95.83
2023-02-04T07:15:30.094Z,95.73
2023-02-04T07:16:29.982Z,95.73
2023-02-04T07:17:30.007Z,95.73
2023-02-04T07:18:29.988Z,95.83
2023-02-04T07:19:29.952Z,95.83
2023-02-04T07:20:30.478Z,95.83
2023-02-04T07:21:29.949Z,95.93
2023-02-04T07:22:29.963Z,95.93
2023-02-04T07:23:29.937Z,95.93
2023-02-04T07:24:29.915Z,96.03
2023-02-04T07:25:29.932Z,96.03
2023-02-04T07:26:29.888Z,96.03
2023-02-04T07:27:29.871Z,96.03
2023-02-04T07:28:29.818Z,96.03
2023-02-04T07:29:29.838Z,96.14
2023-02-04T07:30:30.263Z,96.03
2023-02-04T07:31:29.981Z,96.03
2023-02-04T07:32:29.774Z,95.93
2023-02-04T07:33:29.808Z,96.03
2023-02-04T07:34:29.747Z,96.03
2023-02-04T07:35:29.747Z,96.03
2023-02-04T07:36:29.870Z,96.03
2023-02-04T07:37:29.743Z,96.03
2023-02-04T07:38:29.704Z,96.14
2023-02-04T07:39:29.720Z,96.14
2023-02-04T07:40:29.983Z,96.24
2023-02-04T07:41:29.661Z,96.14
2023-02-04T07:42:29.651Z,96.14
2023-02-04T07:43:29.631Z,96.14
2023-02-04T07:44:29.619Z,96.14
2023-02-04T07:45:29.649Z,96.03
2023-02-04T07:46:29.645Z,96.03
2023-02-04T07:47:29.616Z,96.03
2023-02-04T07:48:29.712Z,96.03
2023-02-04T07:49:29.559Z,96.14
2023-02-04T07:50:29.660Z,96.14
2023-02-04T07:51:29.667Z,96.14
2023-02-04T07:52:29.527Z,96.24
2023-02-04T07:53:29.552Z,96.24
2023-02-04T07:54:29.503Z,96.24
2023-02-04T07:55:29.501Z,96.24
2023-02-04T07:56:29.475Z,96.14
2023-02-04T07:57:29.464Z,96.14
2023-02-04T07:58:30.287Z,96.24
2023-02-04T07:59:29.476Z,96.24
2023-02-04T08:00:29.465Z,96.24
2023-02-04T08:01:29.454Z,96.34
2023-02-04T08:02:29.436Z,96.45
2023-02-04T08:03:29.444Z,96.45
2023-02-04T08:04:29.385Z,96.45
2023-02-04T08:05:29.373Z,96.50
2023-02-04T08:06:29.360Z,96.41
2023-02-04T08:07:29.343Z,96.50
2023-02-04T08:08:29.352Z,96.50
2023-02-04T08:09:29.754Z,96.50
2023-02-04T08:10:29.629Z,96.50
2023-02-04T08:11:29.279Z,96.50
2023-02-04T08:12:29.274Z,96.41
2023-02-04T08:13:29.257Z,96.41
2023-02-04T08:14:29.278Z,96.41
2023-02-04T08:15:29.259Z,96.41
2023-02-04T08:16:29.196Z,96.41
2023-02-04T08:17:29.205Z,96.41
2023-02-04T08:18:29.225Z,96.30
2023-02-04T08:19:29.178Z,96.20
2023-02-04T08:20:29.332Z,96.20
2023-02-04T08:21:29.169Z,95.99
2023-02-04T08:22:29.157Z,95.99
2023-02-04T08:23:29.151Z,95.99
2023-02-04T08:24:29.135Z,95.95
2023-02-04T08:25:29.131Z,96.05
2023-02-04T08:26:29.089Z,96.05
2023-02-04T08:27:29.064Z,96.05
2023-02-04T08:28:29.063Z,96.15
2023-02-04T08:29:29.055Z,96.15
2023-02-04T08:30:29.079Z,96.25
2023-02-04T08:31:29.164Z,96.25
2023-02-04T08:32:29.001Z,96.25
2023-02-04T08:33:29.017Z,96.25
2023-02-04T08:34:28.977Z,96.25
2023-02-04T08:35:28.989Z,96.25
2023-02-04T08:36:28.996Z,96.25
2023-02-04T08:37:28.930Z,96.25
2023-02-04T08:38:28.903Z,96.15
2023-02-04T08:39:28.929Z,96.15
2023-02-04T08:40:28.877Z,96.15
2023-02-04T08:41:28.906Z,96.15
2023-02-04T08:42:28.891Z,96.15
2023-02-04T08:43:28.853Z,96.05
2023-02-04T08:44:28.826Z,96.05
2023-02-04T08:45:28.863Z,96.05
2023-02-04T08:46:28.945Z,95.74
2023-02-04T08:47:28.854Z,95.64
2023-02-04T08:48:28.802Z,95.49
2023-02-04T08:49:28.801Z,95.59
2023-02-04T08:50:28.770Z,95.53
2023-02-04T08:51:28.795Z,95.53
2023-02-04T08:52:28.760Z,95.53
2023-02-04T08:53:28.754Z,95.64
2023-02-04T08:54:28.714Z,95.64
2023-02-04T08:55:28.751Z,95.53
2023-02-04T08:56:28.709Z,95.64
2023-02-04T08:57:28.705Z,95.64
2023-02-04T08:58:28.695Z,95.64
2023-02-04T08:59:28.711Z,95.53
2023-02-04T09:00:28.742Z,95.53
2023-02-04T09:01:28.649Z,95.53
2023-02-04T09:02:28.752Z,95.64
2023-02-04T09:03:28.678Z,95.70
2023-02-04T09:04:28.629Z,95.70
2023-02-04T09:05:28.599Z,95.70
2023-02-04T09:06:28.582Z,95.70
2023-02-04T09:07:28.617Z,95.80
2023-02-04T09:08:28.582Z,95.80
2023-02-04T09:09:28.554Z,95.80
2023-02-04T09:10:28.534Z,95.80
2023-02-04T09:11:28.563Z,95.80
2023-02-04T09:12:28.560Z,95.80
2023-02-04T09:13:28.558Z,95.80
2023-02-04T09:14:28.535Z,95.80
2023-02-04T09:15:28.483Z,95.59
2023-02-04T09:16:28.531Z,95.49
2023-02-04T09:17:28.463Z,95.28
2023-02-04T09:18:28.460Z,95.34
2023-02-04T09:19:28.426Z,95.24
2023-02-04T09:20:28.453Z,95.24
2023-02-04T09:21:28.412Z,95.03
2023-02-04T09:22:28.413Z,94.93
2023-02-04T09:23:28.477Z,94.93
2023-02-04T09:24:28.362Z,94.93
2023-02-04T09:25:28.365Z,94.73
2023-02-04T09:26:28.371Z,94.62
2023-02-04T09:27:28.334Z,94.52
2023-02-04T09:28:28.314Z,94.42
2023-02-04T09:29:28.343Z,94.31
2023-02-04T09:30:28.284Z,94.52
2023-02-04T09:31:28.402Z,94.62
2023-02-04T09:32:28.319Z,94.42
2023-02-04T09:33:28.298Z,94.21
2023-02-04T09:34:28.249Z,94.21
2023-02-04T09:35:28.214Z,94.31
2023-02-04T09:36:28.240Z,94.42
2023-02-04T09:37:28.238Z,94.42
2023-02-04T09:38:28.224Z,94.27
2023-02-04T09:39:28.212Z,94.17
2023-02-04T09:40:28.164Z,94.17
2023-02-04T09:41:28.145Z,94.17
2023-02-04T09:42:28.200Z,94.17
2023-02-04T09:43:28.118Z,94.07
2023-02-04T09:44:28.116Z,93.96
2023-02-04T09:45:28.190Z,93.86
2023-02-04T09:46:28.093Z,93.55
2023-02-04T09:47:28.095Z,93.44
2023-02-04T09:48:28.074Z,93.35
2023-02-04T09:49:28.062Z,93.24
2023-02-04T09:50:28.073Z,93.04
2023-02-04T09:51:28.054Z,92.73
2023-02-04T09:52:28.038Z,92.63
2023-02-04T09:53:27.997Z,92.63
2023-02-04T09:54:27.985Z,92.73
2023-02-04T09:55:28.751Z,92.63
2023-02-04T09:56:27.955Z,92.52
2023-02-04T09:57:27.996Z,92.63
2023-02-04T09:58:27.932Z,92.73
2023-02-04T09:59:27.907Z,92.52
2023-02-04T10:00:27.924Z,92.42
2023-02-04T10:01:27.937Z,92.52
2023-02-04T10:02:27.936Z,92.63
2023-02-04T10:03:27.930Z,92.73
2023-02-04T10:04:27.848Z,92.73
2023-02-04T10:05:27.849Z,92.52
2023-02-04T10:06:27.838Z,92.42
2023-02-04T10:07:27.855Z,92.21
2023-02-04T10:08:27.792Z,92.21
2023-02-04T10:09:27.788Z,91.91
2023-02-04T10:10:27.832Z,91.91
2023-02-04T10:11:27.776Z,92.01
2023-02-04T10:12:27.789Z,92.01
2023-02-04T10:13:27.785Z,92.11
2023-02-04T10:14:27.741Z,92.17
2023-02-04T10:15:27.716Z,92.17
2023-02-04T10:16:27.778Z,92.27
2023-02-04T10:17:27.763Z,91.97
2023-02-04T10:18:27.711Z,91.86
2023-02-04T10:19:27.694Z,91.97
2023-02-04T10:20:27.661Z,91.86
2023-02-04T10:21:28.559Z,91.97
2023-02-04T10:22:27.661Z,92.07
2023-02-04T10:23:27.602Z,91.97
2023-02-04T10:24:27.621Z,92.01
2023-02-04T10:25:27.623Z,92.11
2023-02-04T10:26:27.631Z,92.21
2023-02-04T10:27:27.572Z,92.32
2023-02-04T10:28:28.420Z,92.52
2023-02-04T10:29:27.504Z,92.52
2023-02-04T10:30:27.531Z,92.42
2023-02-04T10:31:27.607Z,92.42
2023-02-04T10:32:27.541Z,92.42
2023-02-04T10:33:27.466Z,92.38
2023-02-04T10:34:27.513Z,92.48
2023-02-04T10:35:27.454Z,92.38
2023-02-04T10:36:27.435Z,92.42
2023-02-04T10:37:27.446Z,92.11
2023-02-04T10:38:27.464Z,92.01
2023-02-04T10:39:27.413Z,91.91
2023-02-04T10:40:27.445Z,91.91
2023-02-04T10:41:27.448Z,91.91
2023-02-04T10:42:27.382Z,92.01
2023-02-04T10:43:27.328Z,91.97
2023-02-04T10:44:27.350Z,92.17
2023-02-04T10:45:27.306Z,92.27
2023-02-04T10:46:27.362Z,92.38
2023-02-04T10:47:27.303Z,92.48
2023-02-04T10:48:27.405Z,92.38
2023-02-04T10:49:27.302Z,92.27
2023-02-04T10:50:27.277Z,92.07
2023-02-04T10:51:27.274Z,91.97
2023-02-04T10:52:27.248Z,91.97
2023-02-04T10:53:27.229Z,92.07
2023-02-04T10:54:27.241Z,92.17
2023-02-04T10:55:27.184Z,91.86
2023-02-04T10:56:27.237Z,91.76
2023-02-04T10:57:27.187Z,91.76
2023-02-04T10:58:27.180Z,91.97
2023-02-04T10:59:27.171Z,92.17
2023-02-04T11:00:27.180Z,92.07
2023-02-04T11:01:27.186Z,91.76
2023-02-04T11:02:27.160Z,91.66
2023-02-04T11:03:27.166Z,91.86
2023-02-04T11:04:27.074Z,91.66
2023-02-04T11:05:27.082Z,91.55
2023-02-04T11:06:27.091Z,91.55
2023-02-04T11:07:27.070Z,91.76
2023-02-04T11:08:27.063Z,91.86
2023-02-04T11:09:27.004Z,91.66
2023-02-04T11:10:27.004Z,91.66
2023-02-04T11:11:26.979Z,91.76
2023-02-04T11:12:27.020Z,91.97
2023-02-04T11:13:26.966Z,91.97
2023-02-04T11:14:27.008Z,91.97
2023-02-04T11:15:26.933Z,91.97
2023-02-04T11:16:27.055Z,92.07
2023-02-04T11:17:27.930Z,92.17
2023-02-04T11:18:27.162Z,91.97
2023-02-04T11:19:26.872Z,91.76
2023-02-04T11:20:26.863Z,91.76
2023-02-04T11:21:26.853Z,91.86
2023-02-04T11:22:26.843Z,91.76
2023-02-04T11:23:26.878Z,91.86
2023-02-04T11:24:26.870Z,91.97
2023-02-04T11:25:26.814Z,91.97
2023-02-04T11:26:26.829Z,91.97
2023-02-04T11:27:26.814Z,91.86
2023-02-04T11:28:26.798Z,91.86
2023-02-04T11:29:26.801Z,91.86
2023-02-04T11:30:26.778Z,92.07
2023-02-04T11:31:26.900Z,91.76
2023-02-04T11:32:26.760Z,91.66
2023-02-04T11:33:26.731Z,91.45
2023-02-04T11:34:26.702Z,91.25
2023-02-04T11:35:26.699Z,91.25
2023-02-04T11:36:26.706Z,91.25
2023-02-04T11:37:26.666Z,91.25
2023-02-04T11:38:26.641Z,91.35
2023-02-04T11:39:26.618Z,91.45
2023-02-04T11:40:26.613Z,91.45
2023-02-04T11:41:26.618Z,91.55
2023-02-04T11:42:26.595Z,91.45
2023-02-04T11:43:26.555Z,91.25
2023-02-04T11:44:26.564Z,91.20
2023-02-04T11:45:26.563Z,91.20
2023-02-04T11:46:26.608Z,91.20
2023-02-04T11:47:26.524Z,91.20
2023-02-04T11:48:26.541Z,91.20
2023-02-04T11:49:26.490Z,91.20
2023-02-04T11:50:26.514Z,90.48
2023-02-04T11:51:26.508Z,90.28
2023-02-04T11:52:26.453Z,89.76
2023-02-04T11:53:26.450Z,89.56
2023-02-04T11:54:26.457Z,89.25
2023-02-04T11:55:26.448Z,89.15
2023-02-04T11:56:26.412Z,89.46
2023-02-04T11:57:26.433Z,89.52
2023-02-04T11:58:35.206Z,89.11
2023-02-04T11:59:26.430Z,88.90
2023-02-04T12:00:26.400Z,89.01
2023-02-04T12:01:26.335Z,89.21
2023-02-04T12:02:26.385Z,88.80
2023-02-04T12:03:26.501Z,88.29
2023-02-04T12:04:26.371Z,88.08
2023-02-04T12:05:26.280Z,88.18
2023-02-04T12:06:26.276Z,88.18
2023-02-04T12:07:26.279Z,88.18
2023-02-04T12:08:26.342Z,88.39
2023-02-04T12:09:26.261Z,88.59
2023-02-04T12:10:26.229Z,88.39
2023-02-04T12:11:26.238Z,88.08
2023-02-04T12:12:26.221Z,88.18
2023-02-04T12:13:26.305Z,88.45
2023-02-04T12:14:26.186Z,88.56
2023-02-04T12:15:26.196Z,88.18
2023-02-04T12:16:26.303Z,87.98
2023-02-04T12:17:26.128Z,87.73
2023-02-04T12:18:26.174Z,87.43
2023-02-04T12:19:27.653Z,87.43
2023-02-04T12:20:26.120Z,87.32
2023-02-04T12:21:26.139Z,86.85
2023-02-04T12:22:26.087Z,87.16
2023-02-04T12:23:26.157Z,87.63
2023-02-04T12:24:26.062Z,87.73
2023-02-04T12:25:26.080Z,87.53
2023-02-04T12:26:26.050Z,87.43
2023-02-04T12:27:26.050Z,87.22
2023-02-04T12:28:26.061Z,87.12
2023-02-04T12:29:25.970Z,87.32
2023-02-04T12:30:26.030Z,87.43
2023-02-04T12:31:26.217Z,87.43
2023-02-04T12:32:25.948Z,87.22
2023-02-04T12:33:25.939Z,87.12
2023-02-04T12:34:25.938Z,87.32
2023-02-04T12:35:25.928Z,86.91
2023-02-04T12:36:26.084Z,86.81
2023-02-04T12:37:25.928Z,86.71
2023-02-04T12:38:25.893Z,86.50
2023-02-04T12:39:25.906Z,86.60
2023-02-04T12:40:25.872Z,86.71
2023-02-04T12:41:25.855Z,86.81
2023-02-04T12:42:25.818Z,86.60
2023-02-04T12:43:28.174Z,86.09
2023-02-04T12:44:25.818Z,86.09
2023-02-04T12:45:25.821Z,85.78
2023-02-04T12:46:25.866Z,85.58
2023-02-04T12:47:25.757Z,85.27
2023-02-04T12:48:25.763Z,85.58
2023-02-04T12:49:25.759Z,85.06
2023-02-04T12:50:25.709Z,85.17
2023-02-04T12:51:25.742Z,85.38
2023-02-04T12:52:25.698Z,85.47